sensor_id;sensor_type;location;lat;lon;timestamp;P1;durP1;ratioP1;P2;durP2;ratioP2
8435;SDS011;4255;48.730;9.156;2023-10-19T00:02:04;33.17;;;25.38;;
8435;SDS011;4255;48.730;9.156;2023-10-19T00:04:31;34.70;;;26.70;;
8435;SDS011;4255;48.730;9.156;2023-10-19T00:06:57;32.93;;;23.60;;
8435;SDS011;4255;48.730;9.156;2023-10-19T00:09:23;25.80;;;20.97;;
8435;SDS011;4255;48.730;9.156;2023-10-19T00:11:50;26.77;;;19.70;;
8435;SDS011;4255;48.730;9.156;2023-10-19T00:14:17;29.48;;;18.63;;
8435;SDS011;4255;48.730;9.156;2023-10-19T00:16:44;24.40;;;17.67;;
8435;SDS011;4255;48.730;9.156;2023-10-19T00:19:18;19.23;;;15.63;;
8435;SDS011;4255;48.730;9.156;2023-10-19T00:21:47;25.50;;;16.73;;
8435;SDS011;4255;48.730;9.156;2023-10-19T00:24:17;18.07;;;14.30;;
8435;SDS011;4255;48.730;9.156;2023-10-19T00:26:44;15.87;;;13.47;;
8435;SDS011;4255;48.730;9.156;2023-10-19T00:29:10;19.73;;;14.50;;
8435;SDS011;4255;48.730;9.156;2023-10-19T00:31:54;17.70;;;14.50;;
8435;SDS011;4255;48.730;9.156;2023-10-19T00:34:21;18.50;;;13.80;;
8435;SDS011;4255;48.730;9.156;2023-10-19T00:36:47;23.07;;;13.80;;
8435;SDS011;4255;48.730;9.156;2023-10-19T00:39:13;18.27;;;12.97;;
8435;SDS011;4255;48.730;9.156;2023-10-19T00:42:02;17.80;;;13.63;;
8435;SDS011;4255;48.730;9.156;2023-10-19T00:44:27;16.50;;;13.63;;
8435;SDS011;4255;48.730;9.156;2023-10-19T00:47:03;15.50;;;12.63;;
8435;SDS011;4255;48.730;9.156;2023-10-19T00:49:32;13.10;;;11.73;;
8435;SDS011;4255;48.730;9.156;2023-10-19T00:51:58;14.70;;;11.77;;
8435;SDS011;4255;48.730;9.156;2023-10-19T00:54:36;13.63;;;10.33;;
8435;SDS011;4255;48.730;9.156;2023-10-19T00:57:16;13.97;;;11.43;;
8435;SDS011;4255;48.730;9.156;2023-10-19T00:59:45;13.90;;;11.80;;
8435;SDS011;4255;48.730;9.156;2023-10-19T01:02:26;14.40;;;11.70;;
8435;SDS011;4255;48.730;9.156;2023-10-19T01:04:52;12.60;;;10.30;;
8435;SDS011;4255;48.730;9.156;2023-10-19T01:07:26;11.93;;;10.03;;
8435;SDS011;4255;48.730;9.156;2023-10-19T01:09:54;13.43;;;12.07;;
8435;SDS011;4255;48.730;9.156;2023-10-19T01:12:24;11.73;;;10.53;;
8435;SDS011;4255;48.730;9.156;2023-10-19T01:17:39;14.50;;;10.70;;
8435;SDS011;4255;48.730;9.156;2023-10-19T01:20:12;16.23;;;11.27;;
8435;SDS011;4255;48.730;9.156;2023-10-19T01:25:47;17.63;;;13.77;;
8435;SDS011;4255;48.730;9.156;2023-10-19T01:31:12;15.47;;;13.30;;
8435;SDS011;4255;48.730;9.156;2023-10-19T01:33:47;14.90;;;12.57;;
8435;SDS011;4255;48.730;9.156;2023-10-19T01:36:14;14.20;;;12.73;;
8435;SDS011;4255;48.730;9.156;2023-10-19T01:38:40;16.07;;;12.43;;
8435;SDS011;4255;48.730;9.156;2023-10-19T01:41:07;14.07;;;12.57;;
8435;SDS011;4255;48.730;9.156;2023-10-19T01:43:40;14.50;;;13.00;;
8435;SDS011;4255;48.730;9.156;2023-10-19T01:46:07;14.10;;;12.60;;
8435;SDS011;4255;48.730;9.156;2023-10-19T01:48:37;15.57;;;12.77;;
8435;SDS011;4255;48.730;9.156;2023-10-19T01:51:05;16.63;;;13.93;;
8435;SDS011;4255;48.730;9.156;2023-10-19T01:53:38;14.80;;;12.20;;
8435;SDS011;4255;48.730;9.156;2023-10-19T01:56:10;15.47;;;12.67;;
8435;SDS011;4255;48.730;9.156;2023-10-19T01:58:37;15.30;;;12.07;;
8435;SDS011;4255;48.730;9.156;2023-10-19T02:01:05;14.23;;;11.90;;
8435;SDS011;4255;48.730;9.156;2023-10-19T02:03:42;16.10;;;11.30;;
8435;SDS011;4255;48.730;9.156;2023-10-19T02:06:08;15.73;;;11.27;;
8435;SDS011;4255;48.730;9.156;2023-10-19T02:11:50;14.07;;;11.60;;
8435;SDS011;4255;48.730;9.156;2023-10-19T02:14:18;21.20;;;11.17;;
8435;SDS011;4255;48.730;9.156;2023-10-19T02:16:48;14.03;;;11.33;;
8435;SDS011;4255;48.730;9.156;2023-10-19T02:19:18;18.43;;;11.50;;
8435;SDS011;4255;48.730;9.156;2023-10-19T02:21:45;16.83;;;11.20;;
8435;SDS011;4255;48.730;9.156;2023-10-19T02:24:13;17.13;;;15.33;;
8435;SDS011;4255;48.730;9.156;2023-10-19T02:26:39;12.70;;;9.90;;
8435;SDS011;4255;48.730;9.156;2023-10-19T02:29:09;13.40;;;11.30;;
8435;SDS011;4255;48.730;9.156;2023-10-19T02:31:35;14.10;;;9.63;;
8435;SDS011;4255;48.730;9.156;2023-10-19T02:34:05;20.30;;;9.97;;
8435;SDS011;4255;48.730;9.156;2023-10-19T02:36:35;18.57;;;10.40;;
8435;SDS011;4255;48.730;9.156;2023-10-19T02:39:06;12.80;;;10.87;;
8435;SDS011;4255;48.730;9.156;2023-10-19T02:41:37;10.13;;;9.10;;
8435;SDS011;4255;48.730;9.156;2023-10-19T02:44:09;16.30;;;10.00;;
8435;SDS011;4255;48.730;9.156;2023-10-19T02:46:41;11.30;;;9.80;;
8435;SDS011;4255;48.730;9.156;2023-10-19T02:49:08;12.27;;;8.70;;
8435;SDS011;4255;48.730;9.156;2023-10-19T02:51:39;12.40;;;9.43;;
8435;SDS011;4255;48.730;9.156;2023-10-19T02:54:06;14.07;;;9.10;;
8435;SDS011;4255;48.730;9.156;2023-10-19T02:56:33;12.97;;;9.77;;
8435;SDS011;4255;48.730;9.156;2023-10-19T02:59:00;10.70;;;9.17;;
8435;SDS011;4255;48.730;9.156;2023-10-19T03:01:29;10.83;;;9.10;;
8435;SDS011;4255;48.730;9.156;2023-10-19T03:03:56;10.83;;;8.90;;
8435;SDS011;4255;48.730;9.156;2023-10-19T03:06:25;12.80;;;9.33;;
8435;SDS011;4255;48.730;9.156;2023-10-19T03:08:56;14.47;;;9.17;;
8435;SDS011;4255;48.730;9.156;2023-10-19T03:11:29;13.57;;;8.77;;
8435;SDS011;4255;48.730;9.156;2023-10-19T03:13:57;12.60;;;8.20;;
8435;SDS011;4255;48.730;9.156;2023-10-19T03:16:23;12.20;;;8.33;;
8435;SDS011;4255;48.730;9.156;2023-10-19T03:18:49;12.37;;;8.67;;
8435;SDS011;4255;48.730;9.156;2023-10-19T03:21:18;10.57;;;9.00;;
8435;SDS011;4255;48.730;9.156;2023-10-19T03:23:48;13.37;;;7.63;;
8435;SDS011;4255;48.730;9.156;2023-10-19T03:26:15;9.83;;;8.63;;
8435;SDS011;4255;48.730;9.156;2023-10-19T03:28:49;10.13;;;8.90;;
8435;SDS011;4255;48.730;9.156;2023-10-19T03:31:20;10.20;;;8.67;;
8435;SDS011;4255;48.730;9.156;2023-10-19T03:33:48;13.03;;;9.73;;
8435;SDS011;4255;48.730;9.156;2023-10-19T03:36:18;11.80;;;8.70;;
8435;SDS011;4255;48.730;9.156;2023-10-19T03:38:45;18.80;;;11.40;;
8435;SDS011;4255;48.730;9.156;2023-10-19T03:41:11;11.53;;;8.73;;
8435;SDS011;4255;48.730;9.156;2023-10-19T03:43:36;9.23;;;8.10;;
8435;SDS011;4255;48.730;9.156;2023-10-19T03:46:05;12.73;;;9.23;;
8435;SDS011;4255;48.730;9.156;2023-10-19T03:48:50;13.80;;;9.33;;
8435;SDS011;4255;48.730;9.156;2023-10-19T03:51:16;10.97;;;9.97;;
8435;SDS011;4255;48.730;9.156;2023-10-19T03:53:42;11.00;;;9.90;;
8435;SDS011;4255;48.730;9.156;2023-10-19T03:56:19;13.60;;;9.57;;
8435;SDS011;4255;48.730;9.156;2023-10-19T03:58:45;10.13;;;8.70;;
8435;SDS011;4255;48.730;9.156;2023-10-19T04:01:13;10.45;;;8.73;;
8435;SDS011;4255;48.730;9.156;2023-10-19T04:03:41;12.18;;;9.38;;
8435;SDS011;4255;48.730;9.156;2023-10-19T04:06:08;10.13;;;9.10;;
8435;SDS011;4255;48.730;9.156;2023-10-19T04:08:39;11.20;;;8.80;;
8435;SDS011;4255;48.730;9.156;2023-10-19T04:11:05;13.20;;;10.30;;
8435;SDS011;4255;48.730;9.156;2023-10-19T04:13:34;13.67;;;10.20;;
8435;SDS011;4255;48.730;9.156;2023-10-19T04:16:02;15.47;;;10.13;;
8435;SDS011;4255;48.730;9.156;2023-10-19T04:18:28;11.47;;;9.37;;
8435;SDS011;4255;48.730;9.156;2023-10-19T04:20:54;11.50;;;8.80;;
8435;SDS011;4255;48.730;9.156;2023-10-19T04:23:23;13.10;;;8.73;;
8435;SDS011;4255;48.730;9.156;2023-10-19T04:25:52;12.73;;;9.87;;
8435;SDS011;4255;48.730;9.156;2023-10-19T04:28:21;12.83;;;8.60;;
8435;SDS011;4255;48.730;9.156;2023-10-19T04:30:56;14.67;;;10.27;;
8435;SDS011;4255;48.730;9.156;2023-10-19T04:33:27;11.20;;;9.87;;
8435;SDS011;4255;48.730;9.156;2023-10-19T04:35:57;13.07;;;10.20;;
8435;SDS011;4255;48.730;9.156;2023-10-19T04:38:25;11.00;;;9.80;;
8435;SDS011;4255;48.730;9.156;2023-10-19T04:40:51;12.33;;;10.47;;
8435;SDS011;4255;48.730;9.156;2023-10-19T04:43:17;11.33;;;9.80;;
8435;SDS011;4255;48.730;9.156;2023-10-19T04:45:43;11.23;;;10.00;;
8435;SDS011;4255;48.730;9.156;2023-10-19T04:48:11;13.60;;;8.80;;
8435;SDS011;4255;48.730;9.156;2023-10-19T04:50:37;12.67;;;8.83;;
8435;SDS011;4255;48.730;9.156;2023-10-19T04:53:02;17.87;;;10.27;;
8435;SDS011;4255;48.730;9.156;2023-10-19T04:55:30;12.53;;;9.40;;
8435;SDS011;4255;48.730;9.156;2023-10-19T04:57:56;9.60;;;7.67;;
8435;SDS011;4255;48.730;9.156;2023-10-19T05:00:22;9.97;;;8.67;;
8435;SDS011;4255;48.730;9.156;2023-10-19T05:02:49;10.43;;;8.90;;
8435;SDS011;4255;48.730;9.156;2023-10-19T05:05:17;12.47;;;8.40;;
8435;SDS011;4255;48.730;9.156;2023-10-19T05:07:43;9.90;;;8.33;;
8435;SDS011;4255;48.730;9.156;2023-10-19T05:10:08;13.00;;;9.20;;
8435;SDS011;4255;48.730;9.156;2023-10-19T05:12:34;10.70;;;8.07;;
8435;SDS011;4255;48.730;9.156;2023-10-19T05:15:00;9.70;;;8.80;;
8435;SDS011;4255;48.730;9.156;2023-10-19T05:17:25;9.10;;;8.20;;
8435;SDS011;4255;48.730;9.156;2023-10-19T05:19:52;13.40;;;8.87;;
8435;SDS011;4255;48.730;9.156;2023-10-19T05:22:18;9.30;;;8.40;;
8435;SDS011;4255;48.730;9.156;2023-10-19T05:24:43;10.40;;;9.30;;
8435;SDS011;4255;48.730;9.156;2023-10-19T05:27:09;10.17;;;8.53;;
8435;SDS011;4255;48.730;9.156;2023-10-19T05:29:35;12.60;;;9.13;;
8435;SDS011;4255;48.730;9.156;2023-10-19T05:32:01;15.10;;;9.30;;
8435;SDS011;4255;48.730;9.156;2023-10-19T05:34:28;16.00;;;9.10;;
8435;SDS011;4255;48.730;9.156;2023-10-19T05:37:01;10.13;;;9.10;;
8435;SDS011;4255;48.730;9.156;2023-10-19T05:39:27;12.30;;;9.27;;
8435;SDS011;4255;48.730;9.156;2023-10-19T05:41:56;11.93;;;9.63;;
8435;SDS011;4255;48.730;9.156;2023-10-19T05:44:26;13.40;;;10.63;;
8435;SDS011;4255;48.730;9.156;2023-10-19T05:46:55;14.17;;;10.20;;
8435;SDS011;4255;48.730;9.156;2023-10-19T05:49:21;11.60;;;10.20;;
8435;SDS011;4255;48.730;9.156;2023-10-19T05:51:48;13.93;;;10.50;;
8435;SDS011;4255;48.730;9.156;2023-10-19T05:54:14;13.67;;;9.97;;
8435;SDS011;4255;48.730;9.156;2023-10-19T05:56:41;11.90;;;10.50;;
8435;SDS011;4255;48.730;9.156;2023-10-19T05:59:07;11.40;;;10.00;;
8435;SDS011;4255;48.730;9.156;2023-10-19T06:01:35;11.40;;;10.07;;
8435;SDS011;4255;48.730;9.156;2023-10-19T06:04:02;15.40;;;10.40;;
8435;SDS011;4255;48.730;9.156;2023-10-19T06:06:28;12.07;;;9.33;;
8435;SDS011;4255;48.730;9.156;2023-10-19T06:08:53;14.10;;;9.63;;
8435;SDS011;4255;48.730;9.156;2023-10-19T06:11:19;10.90;;;9.60;;
8435;SDS011;4255;48.730;9.156;2023-10-19T06:13:46;11.40;;;9.00;;
8435;SDS011;4255;48.730;9.156;2023-10-19T06:16:11;10.63;;;9.53;;
8435;SDS011;4255;48.730;9.156;2023-10-19T06:18:37;12.60;;;9.07;;
8435;SDS011;4255;48.730;9.156;2023-10-19T06:21:03;11.60;;;8.90;;
8435;SDS011;4255;48.730;9.156;2023-10-19T06:23:29;14.17;;;9.53;;
8435;SDS011;4255;48.730;9.156;2023-10-19T06:25:56;11.47;;;8.90;;
8435;SDS011;4255;48.730;9.156;2023-10-19T06:28:22;9.50;;;8.60;;
8435;SDS011;4255;48.730;9.156;2023-10-19T06:30:47;14.03;;;8.53;;
8435;SDS011;4255;48.730;9.156;2023-10-19T06:33:13;10.00;;;9.00;;
8435;SDS011;4255;48.730;9.156;2023-10-19T06:35:39;8.53;;;7.60;;
8435;SDS011;4255;48.730;9.156;2023-10-19T06:38:05;11.03;;;8.40;;
8435;SDS011;4255;48.730;9.156;2023-10-19T06:40:33;12.47;;;9.53;;
8435;SDS011;4255;48.730;9.156;2023-10-19T06:43:02;12.00;;;9.00;;
8435;SDS011;4255;48.730;9.156;2023-10-19T06:45:30;11.33;;;8.33;;
8435;SDS011;4255;48.730;9.156;2023-10-19T06:47:56;9.50;;;8.50;;
8435;SDS011;4255;48.730;9.156;2023-10-19T06:50:23;11.90;;;8.93;;
8435;SDS011;4255;48.730;9.156;2023-10-19T06:52:50;11.70;;;8.93;;
8435;SDS011;4255;48.730;9.156;2023-10-19T06:55:17;11.30;;;9.90;;
8435;SDS011;4255;48.730;9.156;2023-10-19T06:57:52;15.50;;;9.70;;
8435;SDS011;4255;48.730;9.156;2023-10-19T07:00:22;11.33;;;8.97;;
8435;SDS011;4255;48.730;9.156;2023-10-19T07:02:51;11.77;;;9.00;;
8435;SDS011;4255;48.730;9.156;2023-10-19T07:05:18;10.10;;;8.50;;
8435;SDS011;4255;48.730;9.156;2023-10-19T07:07:49;11.10;;;10.03;;
8435;SDS011;4255;48.730;9.156;2023-10-19T07:10:17;10.77;;;8.30;;
8435;SDS011;4255;48.730;9.156;2023-10-19T07:12:46;16.50;;;11.90;;
8435;SDS011;4255;48.730;9.156;2023-10-19T07:15:15;11.00;;;9.57;;
8435;SDS011;4255;48.730;9.156;2023-10-19T07:17:44;11.10;;;8.33;;
8435;SDS011;4255;48.730;9.156;2023-10-19T07:20:11;12.23;;;9.70;;
8435;SDS011;4255;48.730;9.156;2023-10-19T07:22:55;11.27;;;8.10;;
8435;SDS011;4255;48.730;9.156;2023-10-19T07:25:22;14.17;;;9.10;;
8435;SDS011;4255;48.730;9.156;2023-10-19T07:27:50;10.20;;;9.20;;
8435;SDS011;4255;48.730;9.156;2023-10-19T07:30:17;11.27;;;9.73;;
8435;SDS011;4255;48.730;9.156;2023-10-19T07:32:49;10.43;;;8.40;;
8435;SDS011;4255;48.730;9.156;2023-10-19T07:35:19;8.70;;;7.90;;
8435;SDS011;4255;48.730;9.156;2023-10-19T07:37:45;10.83;;;8.53;;
8435;SDS011;4255;48.730;9.156;2023-10-19T07:40:13;9.47;;;7.70;;
8435;SDS011;4255;48.730;9.156;2023-10-19T07:42:42;16.30;;;7.50;;
8435;SDS011;4255;48.730;9.156;2023-10-19T07:45:08;8.57;;;7.77;;
8435;SDS011;4255;48.730;9.156;2023-10-19T07:47:37;8.07;;;7.07;;
8435;SDS011;4255;48.730;9.156;2023-10-19T07:50:05;6.17;;;5.57;;
8435;SDS011;4255;48.730;9.156;2023-10-19T07:52:41;9.43;;;6.43;;
8435;SDS011;4255;48.730;9.156;2023-10-19T07:55:08;8.43;;;6.80;;
8435;SDS011;4255;48.730;9.156;2023-10-19T07:57:34;7.07;;;6.37;;
8435;SDS011;4255;48.730;9.156;2023-10-19T08:00:00;7.60;;;6.17;;
8435;SDS011;4255;48.730;9.156;2023-10-19T08:02:26;7.60;;;6.90;;
8435;SDS011;4255;48.730;9.156;2023-10-19T08:04:51;7.00;;;6.40;;
8435;SDS011;4255;48.730;9.156;2023-10-19T08:07:17;8.10;;;6.50;;
8435;SDS011;4255;48.730;9.156;2023-10-19T08:09:44;10.60;;;7.90;;
8435;SDS011;4255;48.730;9.156;2023-10-19T08:12:10;9.53;;;6.80;;
8435;SDS011;4255;48.730;9.156;2023-10-19T08:14:38;11.10;;;8.30;;
8435;SDS011;4255;48.730;9.156;2023-10-19T08:17:04;14.60;;;9.10;;
8435;SDS011;4255;48.730;9.156;2023-10-19T08:19:31;11.20;;;10.00;;
8435;SDS011;4255;48.730;9.156;2023-10-19T08:21:56;10.33;;;9.33;;
8435;SDS011;4255;48.730;9.156;2023-10-19T08:24:22;12.10;;;10.97;;
8435;SDS011;4255;48.730;9.156;2023-10-19T08:26:48;15.77;;;11.33;;
8435;SDS011;4255;48.730;9.156;2023-10-19T08:29:15;15.73;;;11.53;;
8435;SDS011;4255;48.730;9.156;2023-10-19T08:31:42;13.13;;;11.80;;
8435;SDS011;4255;48.730;9.156;2023-10-19T08:34:10;15.40;;;11.93;;
8435;SDS011;4255;48.730;9.156;2023-10-19T08:36:37;13.10;;;11.53;;
8435;SDS011;4255;48.730;9.156;2023-10-19T08:39:06;13.27;;;11.87;;
8435;SDS011;4255;48.730;9.156;2023-10-19T08:41:33;13.07;;;11.70;;
8435;SDS011;4255;48.730;9.156;2023-10-19T08:44:09;12.93;;;11.63;;
8435;SDS011;4255;48.730;9.156;2023-10-19T08:46:40;12.53;;;11.23;;
8435;SDS011;4255;48.730;9.156;2023-10-19T08:49:13;13.63;;;12.20;;
8435;SDS011;4255;48.730;9.156;2023-10-19T08:51:43;18.00;;;12.43;;
8435;SDS011;4255;48.730;9.156;2023-10-19T08:54:10;13.90;;;12.50;;
8435;SDS011;4255;48.730;9.156;2023-10-19T08:56:37;12.77;;;11.47;;
8435;SDS011;4255;48.730;9.156;2023-10-19T08:59:04;13.07;;;11.77;;
8435;SDS011;4255;48.730;9.156;2023-10-19T09:01:31;11.37;;;10.30;;
8435;SDS011;4255;48.730;9.156;2023-10-19T09:04:00;11.33;;;10.03;;
8435;SDS011;4255;48.730;9.156;2023-10-19T09:06:26;9.50;;;8.70;;
8435;SDS011;4255;48.730;9.156;2023-10-19T09:08:55;9.17;;;8.30;;
8435;SDS011;4255;48.730;9.156;2023-10-19T09:11:23;8.77;;;7.80;;
8435;SDS011;4255;48.730;9.156;2023-10-19T09:13:51;8.13;;;7.33;;
8435;SDS011;4255;48.730;9.156;2023-10-19T09:16:20;13.43;;;6.80;;
8435;SDS011;4255;48.730;9.156;2023-10-19T09:18:47;7.97;;;6.80;;
8435;SDS011;4255;48.730;9.156;2023-10-19T09:21:16;10.27;;;7.30;;
8435;SDS011;4255;48.730;9.156;2023-10-19T09:23:52;8.80;;;7.17;;
8435;SDS011;4255;48.730;9.156;2023-10-19T09:26:19;7.00;;;5.97;;
8435;SDS011;4255;48.730;9.156;2023-10-19T09:28:47;6.83;;;6.33;;
8435;SDS011;4255;48.730;9.156;2023-10-19T09:31:17;10.83;;;6.63;;
8435;SDS011;4255;48.730;9.156;2023-10-19T09:33:44;7.07;;;6.37;;
8435;SDS011;4255;48.730;9.156;2023-10-19T09:36:10;7.27;;;6.63;;
8435;SDS011;4255;48.730;9.156;2023-10-19T09:38:46;7.87;;;7.17;;
8435;SDS011;4255;48.730;9.156;2023-10-19T09:41:22;7.53;;;6.77;;
8435;SDS011;4255;48.730;9.156;2023-10-19T09:43:53;10.73;;;7.97;;
8435;SDS011;4255;48.730;9.156;2023-10-19T09:46:29;10.20;;;8.23;;
8435;SDS011;4255;48.730;9.156;2023-10-19T09:48:57;13.23;;;8.67;;
8435;SDS011;4255;48.730;9.156;2023-10-19T09:51:23;11.47;;;10.37;;
8435;SDS011;4255;48.730;9.156;2023-10-19T09:56:54;10.43;;;9.50;;
8435;SDS011;4255;48.730;9.156;2023-10-19T09:59:33;9.80;;;8.80;;
8435;SDS011;4255;48.730;9.156;2023-10-19T10:04:31;10.47;;;9.47;;
8435;SDS011;4255;48.730;9.156;2023-10-19T10:06:57;13.27;;;10.20;;
8435;SDS011;4255;48.730;9.156;2023-10-19T10:09:25;14.27;;;9.80;;
8435;SDS011;4255;48.730;9.156;2023-10-19T10:11:52;11.97;;;10.40;;
8435;SDS011;4255;48.730;9.156;2023-10-19T10:14:25;12.13;;;10.93;;
8435;SDS011;4255;48.730;9.156;2023-10-19T10:17:03;11.10;;;10.10;;
8435;SDS011;4255;48.730;9.156;2023-10-19T10:19:30;13.07;;;10.57;;
8435;SDS011;4255;48.730;9.156;2023-10-19T10:22:08;12.60;;;10.50;;
8435;SDS011;4255;48.730;9.156;2023-10-19T10:24:44;11.50;;;10.27;;
8435;SDS011;4255;48.730;9.156;2023-10-19T10:27:09;17.87;;;12.03;;
8435;SDS011;4255;48.730;9.156;2023-10-19T10:29:53;15.70;;;11.20;;
8435;SDS011;4255;48.730;9.156;2023-10-19T10:38:06;10.87;;;9.87;;
8435;SDS011;4255;48.730;9.156;2023-10-19T10:40:48;11.90;;;10.37;;
8435;SDS011;4255;48.730;9.156;2023-10-19T10:43:15;17.23;;;12.33;;
8435;SDS011;4255;48.730;9.156;2023-10-19T10:45:41;11.53;;;9.87;;
8435;SDS011;4255;48.730;9.156;2023-10-19T10:48:14;10.93;;;9.90;;
8435;SDS011;4255;48.730;9.156;2023-10-19T10:50:41;10.87;;;9.83;;
8435;SDS011;4255;48.730;9.156;2023-10-19T10:53:07;12.13;;;9.40;;
8435;SDS011;4255;48.730;9.156;2023-10-19T10:55:34;11.00;;;9.83;;
8435;SDS011;4255;48.730;9.156;2023-10-19T10:57:59;14.10;;;11.03;;
8435;SDS011;4255;48.730;9.156;2023-10-19T11:00:25;13.50;;;11.10;;
8435;SDS011;4255;48.730;9.156;2023-10-19T11:02:59;11.13;;;9.77;;
8435;SDS011;4255;48.730;9.156;2023-10-19T11:05:32;10.53;;;9.60;;
8435;SDS011;4255;48.730;9.156;2023-10-19T11:08:03;9.80;;;8.80;;
8435;SDS011;4255;48.730;9.156;2023-10-19T11:10:32;9.17;;;8.27;;
8435;SDS011;4255;48.730;9.156;2023-10-19T11:13:05;9.93;;;8.80;;
8435;SDS011;4255;48.730;9.156;2023-10-19T11:15:32;9.97;;;8.97;;
8435;SDS011;4255;48.730;9.156;2023-10-19T11:17:58;8.87;;;8.07;;
8435;SDS011;4255;48.730;9.156;2023-10-19T11:20:25;6.40;;;5.80;;
8435;SDS011;4255;48.730;9.156;2023-10-19T11:22:52;6.63;;;4.60;;
8435;SDS011;4255;48.730;9.156;2023-10-19T11:25:22;7.87;;;4.30;;
8435;SDS011;4255;48.730;9.156;2023-10-19T11:27:49;4.07;;;3.77;;
8435;SDS011;4255;48.730;9.156;2023-10-19T11:32:51;4.23;;;3.83;;
8435;SDS011;4255;48.730;9.156;2023-10-19T11:35:19;7.43;;;3.87;;
8435;SDS011;4255;48.730;9.156;2023-10-19T11:37:45;4.73;;;4.33;;
8435;SDS011;4255;48.730;9.156;2023-10-19T11:40:11;4.90;;;4.40;;
8435;SDS011;4255;48.730;9.156;2023-10-19T11:42:36;4.83;;;4.07;;
8435;SDS011;4255;48.730;9.156;2023-10-19T11:45:02;4.90;;;4.40;;
8435;SDS011;4255;48.730;9.156;2023-10-19T11:47:28;8.63;;;4.80;;
8435;SDS011;4255;48.730;9.156;2023-10-19T11:49:54;5.97;;;4.50;;
8435;SDS011;4255;48.730;9.156;2023-10-19T11:52:19;4.43;;;3.63;;
8435;SDS011;4255;48.730;9.156;2023-10-19T11:54:45;4.77;;;4.37;;
8435;SDS011;4255;48.730;9.156;2023-10-19T11:57:10;5.20;;;4.70;;
8435;SDS011;4255;48.730;9.156;2023-10-19T11:59:37;7.87;;;4.60;;
8435;SDS011;4255;48.730;9.156;2023-10-19T12:02:02;5.37;;;4.97;;
8435;SDS011;4255;48.730;9.156;2023-10-19T12:04:29;8.30;;;5.60;;
8435;SDS011;4255;48.730;9.156;2023-10-19T12:06:54;6.20;;;4.87;;
8435;SDS011;4255;48.730;9.156;2023-10-19T12:09:20;5.10;;;4.70;;
8435;SDS011;4255;48.730;9.156;2023-10-19T12:11:49;5.73;;;5.30;;
8435;SDS011;4255;48.730;9.156;2023-10-19T12:14:18;9.00;;;6.30;;
8435;SDS011;4255;48.730;9.156;2023-10-19T12:16:43;8.77;;;6.00;;
8435;SDS011;4255;48.730;9.156;2023-10-19T12:19:10;6.03;;;5.43;;
8435;SDS011;4255;48.730;9.156;2023-10-19T12:21:35;5.30;;;4.90;;
8435;SDS011;4255;48.730;9.156;2023-10-19T12:24:03;5.00;;;4.60;;
8435;SDS011;4255;48.730;9.156;2023-10-19T12:26:29;4.90;;;4.50;;
8435;SDS011;4255;48.730;9.156;2023-10-19T12:28:55;7.70;;;5.10;;
8435;SDS011;4255;48.730;9.156;2023-10-19T12:31:21;5.73;;;5.13;;
8435;SDS011;4255;48.730;9.156;2023-10-19T12:33:48;9.13;;;5.43;;
8435;SDS011;4255;48.730;9.156;2023-10-19T12:36:14;8.20;;;5.57;;
8435;SDS011;4255;48.730;9.156;2023-10-19T12:38:52;7.97;;;5.80;;
8435;SDS011;4255;48.730;9.156;2023-10-19T12:41:19;6.73;;;6.00;;
8435;SDS011;4255;48.730;9.156;2023-10-19T12:43:46;9.63;;;6.20;;
8435;SDS011;4255;48.730;9.156;2023-10-19T12:46:11;8.23;;;7.43;;
8435;SDS011;4255;48.730;9.156;2023-10-19T12:48:39;10.87;;;9.77;;
8435;SDS011;4255;48.730;9.156;2023-10-19T12:51:05;11.60;;;9.23;;
8435;SDS011;4255;48.730;9.156;2023-10-19T12:53:37;13.00;;;10.67;;
8435;SDS011;4255;48.730;9.156;2023-10-19T12:56:06;14.00;;;10.43;;
8435;SDS011;4255;48.730;9.156;2023-10-19T12:58:32;17.33;;;12.40;;
8435;SDS011;4255;48.730;9.156;2023-10-19T13:00:58;16.50;;;14.10;;
8435;SDS011;4255;48.730;9.156;2023-10-19T13:03:24;15.33;;;13.37;;
8435;SDS011;4255;48.730;9.156;2023-10-19T13:05:56;17.30;;;15.60;;
8435;SDS011;4255;48.730;9.156;2023-10-19T13:08:23;20.20;;;16.70;;
8435;SDS011;4255;48.730;9.156;2023-10-19T13:10:52;21.50;;;17.23;;
8435;SDS011;4255;48.730;9.156;2023-10-19T13:13:19;22.70;;;18.10;;
8435;SDS011;4255;48.730;9.156;2023-10-19T13:15:47;24.23;;;17.90;;
8435;SDS011;4255;48.730;9.156;2023-10-19T13:18:13;20.57;;;18.40;;
8435;SDS011;4255;48.730;9.156;2023-10-19T13:20:45;20.90;;;18.53;;
8435;SDS011;4255;48.730;9.156;2023-10-19T13:23:13;19.97;;;17.97;;
8435;SDS011;4255;48.730;9.156;2023-10-19T13:25:46;17.17;;;15.57;;
8435;SDS011;4255;48.730;9.156;2023-10-19T13:28:18;19.40;;;17.33;;
8435;SDS011;4255;48.730;9.156;2023-10-19T13:33:15;18.73;;;15.93;;
8435;SDS011;4255;48.730;9.156;2023-10-19T13:35:42;19.73;;;15.13;;
8435;SDS011;4255;48.730;9.156;2023-10-19T13:38:08;18.93;;;16.00;;
8435;SDS011;4255;48.730;9.156;2023-10-19T13:40:38;17.07;;;14.57;;
8435;SDS011;4255;48.730;9.156;2023-10-19T13:43:04;20.93;;;15.20;;
8435;SDS011;4255;48.730;9.156;2023-10-19T13:45:35;15.73;;;14.10;;
8435;SDS011;4255;48.730;9.156;2023-10-19T13:48:02;20.07;;;15.83;;
8435;SDS011;4255;48.730;9.156;2023-10-19T13:50:29;24.73;;;17.13;;
8435;SDS011;4255;48.730;9.156;2023-10-19T13:52:55;24.20;;;18.47;;
8435;SDS011;4255;48.730;9.156;2023-10-19T13:55:25;19.27;;;17.07;;
8435;SDS011;4255;48.730;9.156;2023-10-19T13:57:51;22.77;;;19.53;;
8435;SDS011;4255;48.730;9.156;2023-10-19T14:00:17;23.77;;;19.40;;
8435;SDS011;4255;48.730;9.156;2023-10-19T14:02:49;24.00;;;20.97;;
8435;SDS011;4255;48.730;9.156;2023-10-19T14:05:15;19.47;;;16.83;;
8435;SDS011;4255;48.730;9.156;2023-10-19T14:07:41;21.53;;;19.27;;
8435;SDS011;4255;48.730;9.156;2023-10-19T14:10:08;24.80;;;18.17;;
8435;SDS011;4255;48.730;9.156;2023-10-19T14:12:37;21.97;;;18.60;;
8435;SDS011;4255;48.730;9.156;2023-10-19T14:15:14;21.27;;;17.53;;
8435;SDS011;4255;48.730;9.156;2023-10-19T14:17:41;21.03;;;18.80;;
8435;SDS011;4255;48.730;9.156;2023-10-19T14:20:07;24.93;;;18.53;;
8435;SDS011;4255;48.730;9.156;2023-10-19T14:22:42;19.33;;;17.33;;
8435;SDS011;4255;48.730;9.156;2023-10-19T14:25:10;22.47;;;17.90;;
8435;SDS011;4255;48.730;9.156;2023-10-19T14:30:07;22.27;;;18.37;;
8435;SDS011;4255;48.730;9.156;2023-10-19T14:32:36;20.57;;;18.40;;
8435;SDS011;4255;48.730;9.156;2023-10-19T14:35:02;25.00;;;20.97;;
8435;SDS011;4255;48.730;9.156;2023-10-19T14:37:31;27.00;;;20.83;;
8435;SDS011;4255;48.730;9.156;2023-10-19T14:39:56;23.50;;;18.97;;
8435;SDS011;4255;48.730;9.156;2023-10-19T14:42:23;30.63;;;19.70;;
8435;SDS011;4255;48.730;9.156;2023-10-19T14:44:49;21.90;;;19.60;;
8435;SDS011;4255;48.730;9.156;2023-10-19T14:47:15;23.63;;;18.97;;
8435;SDS011;4255;48.730;9.156;2023-10-19T14:49:40;20.97;;;18.80;;
8435;SDS011;4255;48.730;9.156;2023-10-19T14:52:06;24.40;;;19.77;;
8435;SDS011;4255;48.730;9.156;2023-10-19T14:54:32;25.50;;;18.80;;
8435;SDS011;4255;48.730;9.156;2023-10-19T14:56:58;26.33;;;20.23;;
8435;SDS011;4255;48.730;9.156;2023-10-19T14:59:23;22.80;;;20.20;;
8435;SDS011;4255;48.730;9.156;2023-10-19T15:01:49;22.33;;;19.93;;
8435;SDS011;4255;48.730;9.156;2023-10-19T15:04:15;30.33;;;21.10;;
8435;SDS011;4255;48.730;9.156;2023-10-19T15:06:40;24.93;;;20.30;;
8435;SDS011;4255;48.730;9.156;2023-10-19T15:09:06;24.53;;;19.63;;
8435;SDS011;4255;48.730;9.156;2023-10-19T15:11:39;27.90;;;21.23;;
8435;SDS011;4255;48.730;9.156;2023-10-19T15:14:05;26.80;;;19.97;;
8435;SDS011;4255;48.730;9.156;2023-10-19T15:16:30;25.37;;;20.17;;
8435;SDS011;4255;48.730;9.156;2023-10-19T15:18:56;26.43;;;21.77;;
8435;SDS011;4255;48.730;9.156;2023-10-19T15:21:22;27.83;;;20.50;;
8435;SDS011;4255;48.730;9.156;2023-10-19T15:23:47;27.40;;;21.17;;
8435;SDS011;4255;48.730;9.156;2023-10-19T15:26:17;34.57;;;20.90;;
8435;SDS011;4255;48.730;9.156;2023-10-19T15:28:43;28.00;;;20.87;;
8435;SDS011;4255;48.730;9.156;2023-10-19T15:31:09;28.30;;;22.40;;
8435;SDS011;4255;48.730;9.156;2023-10-19T15:33:35;25.17;;;20.97;;
8435;SDS011;4255;48.730;9.156;2023-10-19T15:36:01;23.70;;;19.50;;